sensor_id;sensor_type;location;lat;lon;timestamp;P1;durP1;ratioP1;P2;durP2;ratioP2
10387;SDS011;5240;51.128;4.566;2023-06-10T00:01:38;9.20;;;7.10;;
10387;SDS011;5240;51.128;4.566;2023-06-10T00:04:05;7.72;;;6.55;;
10387;SDS011;5240;51.128;4.566;2023-06-10T00:06:33;8.82;;;6.82;;
10387;SDS011;5240;51.128;4.566;2023-06-10T00:09:02;9.32;;;6.78;;
10387;SDS011;5240;51.128;4.566;2023-06-10T00:11:30;7.68;;;6.95;;
10387;SDS011;5240;51.128;4.566;2023-06-10T00:13:59;8.70;;;7.10;;
10387;SDS011;5240;51.128;4.566;2023-06-10T00:16:27;9.82;;;6.53;;
10387;SDS011;5240;51.128;4.566;2023-06-10T00:18:54;10.75;;;6.80;;
10387;SDS011;5240;51.128;4.566;2023-06-10T00:21:25;7.30;;;6.60;;
10387;SDS011;5240;51.128;4.566;2023-06-10T00:23:53;8.65;;;6.80;;
10387;SDS011;5240;51.128;4.566;2023-06-10T00:26:20;8.98;;;7.30;;
10387;SDS011;5240;51.128;4.566;2023-06-10T00:28:47;7.78;;;6.82;;
10387;SDS011;5240;51.128;4.566;2023-06-10T00:31:16;9.35;;;7.20;;
10387;SDS011;5240;51.128;4.566;2023-06-10T00:33:43;9.00;;;7.05;;
10387;SDS011;5240;51.128;4.566;2023-06-10T00:36:10;6.88;;;6.25;;
10387;SDS011;5240;51.128;4.566;2023-06-10T00:38:38;7.68;;;7.07;;
10387;SDS011;5240;51.128;4.566;2023-06-10T00:41:06;8.05;;;7.20;;
10387;SDS011;5240;51.128;4.566;2023-06-10T00:43:33;10.18;;;7.38;;
10387;SDS011;5240;51.128;4.566;2023-06-10T00:46:00;9.15;;;7.13;;
10387;SDS011;5240;51.128;4.566;2023-06-10T00:48:29;7.95;;;7.15;;
10387;SDS011;5240;51.128;4.566;2023-06-10T00:50:57;8.65;;;7.25;;
10387;SDS011;5240;51.128;4.566;2023-06-10T00:53:24;9.40;;;6.88;;
10387;SDS011;5240;51.128;4.566;2023-06-10T00:55:51;8.32;;;7.03;;
10387;SDS011;5240;51.128;4.566;2023-06-10T00:58:19;8.93;;;7.20;;
10387;SDS011;5240;51.128;4.566;2023-06-10T01:00:47;10.60;;;7.25;;
10387;SDS011;5240;51.128;4.566;2023-06-10T01:03:15;9.60;;;7.40;;
10387;SDS011;5240;51.128;4.566;2023-06-10T01:05:45;8.27;;;7.47;;
10387;SDS011;5240;51.128;4.566;2023-06-10T01:08:17;9.85;;;7.60;;
10387;SDS011;5240;51.128;4.566;2023-06-10T01:10:49;13.05;;;7.53;;
10387;SDS011;5240;51.128;4.566;2023-06-10T01:13:17;9.07;;;7.28;;
10387;SDS011;5240;51.128;4.566;2023-06-10T01:15:45;10.30;;;7.28;;
10387;SDS011;5240;51.128;4.566;2023-06-10T01:18:12;10.93;;;7.95;;
10387;SDS011;5240;51.128;4.566;2023-06-10T01:20:42;9.50;;;7.75;;
10387;SDS011;5240;51.128;4.566;2023-06-10T01:23:11;10.85;;;7.80;;
10387;SDS011;5240;51.128;4.566;2023-06-10T01:25:38;8.27;;;7.43;;
10387;SDS011;5240;51.128;4.566;2023-06-10T01:28:10;12.60;;;8.32;;
10387;SDS011;5240;51.128;4.566;2023-06-10T01:30:41;9.35;;;7.50;;
10387;SDS011;5240;51.128;4.566;2023-06-10T01:33:10;8.68;;;7.78;;
10387;SDS011;5240;51.128;4.566;2023-06-10T01:35:39;8.48;;;7.68;;
10387;SDS011;5240;51.128;4.566;2023-06-10T01:38:06;8.45;;;7.60;;
10387;SDS011;5240;51.128;4.566;2023-06-10T01:40:35;8.38;;;7.50;;
10387;SDS011;5240;51.128;4.566;2023-06-10T01:43:03;8.50;;;7.60;;
10387;SDS011;5240;51.128;4.566;2023-06-10T01:45:30;9.48;;;7.57;;
10387;SDS011;5240;51.128;4.566;2023-06-10T01:47:57;11.35;;;8.05;;
10387;SDS011;5240;51.128;4.566;2023-06-10T01:50:25;8.52;;;7.75;;
10387;SDS011;5240;51.128;4.566;2023-06-10T01:52:52;8.90;;;7.93;;
10387;SDS011;5240;51.128;4.566;2023-06-10T01:55:19;11.18;;;8.02;;
10387;SDS011;5240;51.128;4.566;2023-06-10T01:57:48;8.32;;;7.50;;
10387;SDS011;5240;51.128;4.566;2023-06-10T02:00:17;8.23;;;7.43;;
10387;SDS011;5240;51.128;4.566;2023-06-10T02:02:44;8.93;;;7.88;;
10387;SDS011;5240;51.128;4.566;2023-06-10T02:05:11;9.35;;;7.78;;
10387;SDS011;5240;51.128;4.566;2023-06-10T02:07:38;8.85;;;7.57;;
10387;SDS011;5240;51.128;4.566;2023-06-10T02:10:06;8.68;;;7.95;;
10387;SDS011;5240;51.128;4.566;2023-06-10T02:12:34;12.23;;;8.18;;
10387;SDS011;5240;51.128;4.566;2023-06-10T02:15:02;8.40;;;7.60;;
10387;SDS011;5240;51.128;4.566;2023-06-10T02:17:30;9.48;;;7.78;;
10387;SDS011;5240;51.128;4.566;2023-06-10T02:19:57;8.82;;;8.00;;
10387;SDS011;5240;51.128;4.566;2023-06-10T02:22:29;8.70;;;8.00;;
10387;SDS011;5240;51.128;4.566;2023-06-10T02:24:56;10.65;;;8.30;;
10387;SDS011;5240;51.128;4.566;2023-06-10T02:27:23;12.93;;;8.50;;
10387;SDS011;5240;51.128;4.566;2023-06-10T02:29:50;10.18;;;7.65;;
10387;SDS011;5240;51.128;4.566;2023-06-10T02:32:19;8.90;;;8.00;;
10387;SDS011;5240;51.128;4.566;2023-06-10T02:34:46;9.60;;;8.63;;
10387;SDS011;5240;51.128;4.566;2023-06-10T02:37:14;9.18;;;7.72;;
10387;SDS011;5240;51.128;4.566;2023-06-10T02:39:41;9.40;;;7.72;;
10387;SDS011;5240;51.128;4.566;2023-06-10T02:42:09;10.95;;;7.90;;
10387;SDS011;5240;51.128;4.566;2023-06-10T02:44:36;8.98;;;8.07;;
10387;SDS011;5240;51.128;4.566;2023-06-10T02:47:04;10.68;;;8.82;;
10387;SDS011;5240;51.128;4.566;2023-06-10T02:49:32;12.10;;;8.93;;
10387;SDS011;5240;51.128;4.566;2023-06-10T02:51:59;9.35;;;8.45;;
10387;SDS011;5240;51.128;4.566;2023-06-10T02:54:27;10.00;;;9.00;;
10387;SDS011;5240;51.128;4.566;2023-06-10T02:56:54;9.15;;;8.20;;
10387;SDS011;5240;51.128;4.566;2023-06-10T02:59:21;9.00;;;8.10;;
10387;SDS011;5240;51.128;4.566;2023-06-10T03:01:49;9.75;;;8.23;;
10387;SDS011;5240;51.128;4.566;2023-06-10T03:04:16;10.75;;;8.30;;
10387;SDS011;5240;51.128;4.566;2023-06-10T03:06:45;10.82;;;8.98;;
10387;SDS011;5240;51.128;4.566;2023-06-10T03:09:12;10.52;;;8.95;;
10387;SDS011;5240;51.128;4.566;2023-06-10T03:11:40;9.95;;;9.02;;
10387;SDS011;5240;51.128;4.566;2023-06-10T03:14:07;9.95;;;8.95;;
10387;SDS011;5240;51.128;4.566;2023-06-10T03:16:34;9.70;;;8.80;;
10387;SDS011;5240;51.128;4.566;2023-06-10T03:19:05;10.10;;;9.13;;
10387;SDS011;5240;51.128;4.566;2023-06-10T03:21:33;10.23;;;9.20;;
10387;SDS011;5240;51.128;4.566;2023-06-10T03:24:03;11.40;;;10.30;;
10387;SDS011;5240;51.128;4.566;2023-06-10T03:26:31;10.60;;;9.02;;
10387;SDS011;5240;51.128;4.566;2023-06-10T03:28:58;11.60;;;9.70;;
10387;SDS011;5240;51.128;4.566;2023-06-10T03:31:25;11.15;;;8.98;;
10387;SDS011;5240;51.128;4.566;2023-06-10T03:33:53;11.02;;;8.98;;
10387;SDS011;5240;51.128;4.566;2023-06-10T03:36:20;10.73;;;9.38;;
10387;SDS011;5240;51.128;4.566;2023-06-10T03:38:47;11.45;;;9.50;;
10387;SDS011;5240;51.128;4.566;2023-06-10T03:41:18;9.98;;;8.98;;
10387;SDS011;5240;51.128;4.566;2023-06-10T03:43:46;10.52;;;9.50;;
10387;SDS011;5240;51.128;4.566;2023-06-10T03:46:13;10.48;;;9.35;;
10387;SDS011;5240;51.128;4.566;2023-06-10T03:48:42;10.35;;;9.45;;
10387;SDS011;5240;51.128;4.566;2023-06-10T03:51:10;11.10;;;8.93;;
10387;SDS011;5240;51.128;4.566;2023-06-10T03:53:37;10.48;;;9.48;;
10387;SDS011;5240;51.128;4.566;2023-06-10T03:56:04;10.57;;;9.55;;
10387;SDS011;5240;51.128;4.566;2023-06-10T03:58:33;12.85;;;9.75;;
10387;SDS011;5240;51.128;4.566;2023-06-10T04:01:00;13.95;;;10.20;;
10387;SDS011;5240;51.128;4.566;2023-06-10T04:03:27;12.32;;;10.05;;
10387;SDS011;5240;51.128;4.566;2023-06-10T04:05:54;10.85;;;9.68;;
10387;SDS011;5240;51.128;4.566;2023-06-10T04:08:22;11.32;;;9.48;;
10387;SDS011;5240;51.128;4.566;2023-06-10T04:10:49;10.52;;;9.50;;
10387;SDS011;5240;51.128;4.566;2023-06-10T04:13:16;13.63;;;10.05;;
10387;SDS011;5240;51.128;4.566;2023-06-10T04:15:46;10.82;;;9.73;;
10387;SDS011;5240;51.128;4.566;2023-06-10T04:18:13;11.70;;;10.20;;
10387;SDS011;5240;51.128;4.566;2023-06-10T04:20:41;10.75;;;9.73;;
10387;SDS011;5240;51.128;4.566;2023-06-10T04:23:09;11.90;;;10.25;;
10387;SDS011;5240;51.128;4.566;2023-06-10T04:25:36;15.57;;;10.13;;
10387;SDS011;5240;51.128;4.566;2023-06-10T04:28:04;11.57;;;10.38;;
10387;SDS011;5240;51.128;4.566;2023-06-10T04:30:31;10.88;;;9.82;;
10387;SDS011;5240;51.128;4.566;2023-06-10T04:33:00;10.43;;;9.43;;
10387;SDS011;5240;51.128;4.566;2023-06-10T04:35:27;10.82;;;9.77;;
10387;SDS011;5240;51.128;4.566;2023-06-10T04:37:54;14.18;;;9.88;;
10387;SDS011;5240;51.128;4.566;2023-06-10T04:40:21;10.98;;;10.02;;
10387;SDS011;5240;51.128;4.566;2023-06-10T04:42:49;11.00;;;9.98;;
10387;SDS011;5240;51.128;4.566;2023-06-10T04:45:16;11.07;;;10.00;;
10387;SDS011;5240;51.128;4.566;2023-06-10T04:47:43;11.52;;;10.27;;
10387;SDS011;5240;51.128;4.566;2023-06-10T04:50:12;12.73;;;10.50;;
10387;SDS011;5240;51.128;4.566;2023-06-10T04:52:40;11.75;;;10.55;;
10387;SDS011;5240;51.128;4.566;2023-06-10T04:55:08;11.63;;;10.43;;
10387;SDS011;5240;51.128;4.566;2023-06-10T04:57:36;12.00;;;10.20;;
10387;SDS011;5240;51.128;4.566;2023-06-10T05:00:04;10.80;;;9.70;;
10387;SDS011;5240;51.128;4.566;2023-06-10T05:02:31;12.90;;;10.65;;
10387;SDS011;5240;51.128;4.566;2023-06-10T05:04:59;12.95;;;10.70;;
10387;SDS011;5240;51.128;4.566;2023-06-10T05:07:27;11.38;;;10.25;;
10387;SDS011;5240;51.128;4.566;2023-06-10T05:09:55;12.77;;;10.07;;
10387;SDS011;5240;51.128;4.566;2023-06-10T05:12:22;11.95;;;10.63;;
10387;SDS011;5240;51.128;4.566;2023-06-10T05:14:49;11.02;;;10.00;;
10387;SDS011;5240;51.128;4.566;2023-06-10T05:17:17;10.65;;;9.45;;
10387;SDS011;5240;51.128;4.566;2023-06-10T05:19:44;13.77;;;10.48;;
10387;SDS011;5240;51.128;4.566;2023-06-10T05:22:12;11.05;;;10.00;;
10387;SDS011;5240;51.128;4.566;2023-06-10T05:24:42;13.50;;;10.30;;
10387;SDS011;5240;51.128;4.566;2023-06-10T05:27:10;11.20;;;10.20;;
10387;SDS011;5240;51.128;4.566;2023-06-10T05:29:37;11.38;;;10.38;;
10387;SDS011;5240;51.128;4.566;2023-06-10T05:32:05;11.40;;;9.82;;
10387;SDS011;5240;51.128;4.566;2023-06-10T05:34:33;13.93;;;10.52;;
10387;SDS011;5240;51.128;4.566;2023-06-10T05:37:00;13.98;;;10.60;;
10387;SDS011;5240;51.128;4.566;2023-06-10T05:39:28;12.38;;;10.88;;
10387;SDS011;5240;51.128;4.566;2023-06-10T05:41:56;12.43;;;10.75;;
10387;SDS011;5240;51.128;4.566;2023-06-10T05:44:26;11.35;;;10.32;;
10387;SDS011;5240;51.128;4.566;2023-06-10T05:46:53;12.55;;;10.18;;
10387;SDS011;5240;51.128;4.566;2023-06-10T05:49:20;13.05;;;9.93;;
10387;SDS011;5240;51.128;4.566;2023-06-10T05:51:48;11.48;;;10.48;;
10387;SDS011;5240;51.128;4.566;2023-06-10T05:54:17;11.82;;;9.80;;
10387;SDS011;5240;51.128;4.566;2023-06-10T05:56:44;14.27;;;10.75;;
10387;SDS011;5240;51.128;4.566;2023-06-10T05:59:13;10.50;;;9.60;;
10387;SDS011;5240;51.128;4.566;2023-06-10T06:01:40;11.25;;;9.35;;
10387;SDS011;5240;51.128;4.566;2023-06-10T06:04:07;11.02;;;9.98;;
10387;SDS011;5240;51.128;4.566;2023-06-10T06:06:35;14.63;;;10.13;;
10387;SDS011;5240;51.128;4.566;2023-06-10T06:09:02;12.65;;;10.27;;
10387;SDS011;5240;51.128;4.566;2023-06-10T06:11:29;11.35;;;10.25;;
10387;SDS011;5240;51.128;4.566;2023-06-10T06:13:56;11.90;;;9.70;;
10387;SDS011;5240;51.128;4.566;2023-06-10T06:16:25;11.15;;;9.38;;
10387;SDS011;5240;51.128;4.566;2023-06-10T06:18:52;12.43;;;9.70;;
10387;SDS011;5240;51.128;4.566;2023-06-10T06:21:20;15.18;;;9.50;;
10387;SDS011;5240;51.128;4.566;2023-06-10T06:23:47;10.13;;;9.02;;
10387;SDS011;5240;51.128;4.566;2023-06-10T06:26:14;13.60;;;9.93;;
10387;SDS011;5240;51.128;4.566;2023-06-10T06:28:41;19.02;;;9.25;;
10387;SDS011;5240;51.128;4.566;2023-06-10T06:31:09;12.57;;;9.13;;
10387;SDS011;5240;51.128;4.566;2023-06-10T06:33:37;15.13;;;9.07;;
10387;SDS011;5240;51.128;4.566;2023-06-10T06:36:05;12.15;;;8.98;;
10387;SDS011;5240;51.128;4.566;2023-06-10T06:38:32;10.38;;;8.80;;
10387;SDS011;5240;51.128;4.566;2023-06-10T06:40:59;11.10;;;9.02;;
10387;SDS011;5240;51.128;4.566;2023-06-10T06:43:28;11.07;;;8.68;;
10387;SDS011;5240;51.128;4.566;2023-06-10T06:45:56;9.60;;;8.60;;
10387;SDS011;5240;51.128;4.566;2023-06-10T06:48:23;9.95;;;8.32;;
10387;SDS011;5240;51.128;4.566;2023-06-10T06:50:51;9.63;;;8.55;;
10387;SDS011;5240;51.128;4.566;2023-06-10T06:53:23;27.70;;;19.40;;
10387;SDS011;5240;51.128;4.566;2023-06-10T06:55:50;9.80;;;8.05;;
10387;SDS011;5240;51.128;4.566;2023-06-10T06:58:17;9.43;;;8.52;;
10387;SDS011;5240;51.128;4.566;2023-06-10T07:00:45;9.18;;;8.23;;
10387;SDS011;5240;51.128;4.566;2023-06-10T07:03:12;9.27;;;7.53;;
10387;SDS011;5240;51.128;4.566;2023-06-10T07:05:39;9.98;;;7.93;;
10387;SDS011;5240;51.128;4.566;2023-06-10T07:08:08;9.43;;;8.30;;
10387;SDS011;5240;51.128;4.566;2023-06-10T07:10:37;9.60;;;7.57;;
10387;SDS011;5240;51.128;4.566;2023-06-10T07:13:04;13.10;;;8.10;;
10387;SDS011;5240;51.128;4.566;2023-06-10T07:15:32;10.63;;;7.90;;
10387;SDS011;5240;51.128;4.566;2023-06-10T07:17:59;10.48;;;7.70;;
10387;SDS011;5240;51.128;4.566;2023-06-10T07:20:26;10.30;;;8.05;;
10387;SDS011;5240;51.128;4.566;2023-06-10T07:22:53;9.85;;;7.68;;
10387;SDS011;5240;51.128;4.566;2023-06-10T07:25:22;9.75;;;7.75;;
10387;SDS011;5240;51.128;4.566;2023-06-10T07:27:49;8.68;;;7.78;;
10387;SDS011;5240;51.128;4.566;2023-06-10T07:30:16;9.63;;;8.00;;
10387;SDS011;5240;51.128;4.566;2023-06-10T07:32:44;15.60;;;8.55;;
10387;SDS011;5240;51.128;4.566;2023-06-10T07:35:11;12.63;;;7.65;;
10387;SDS011;5240;51.128;4.566;2023-06-10T07:37:39;8.75;;;7.75;;
10387;SDS011;5240;51.128;4.566;2023-06-10T07:40:06;9.35;;;7.78;;
10387;SDS011;5240;51.128;4.566;2023-06-10T07:42:35;8.50;;;7.75;;
10387;SDS011;5240;51.128;4.566;2023-06-10T07:45:03;12.63;;;8.18;;
10387;SDS011;5240;51.128;4.566;2023-06-10T07:47:30;13.23;;;8.27;;
10387;SDS011;5240;51.128;4.566;2023-06-10T07:49:57;8.57;;;7.75;;
10387;SDS011;5240;51.128;4.566;2023-06-10T07:52:25;8.40;;;7.60;;
10387;SDS011;5240;51.128;4.566;2023-06-10T07:54:53;9.93;;;7.75;;
10387;SDS011;5240;51.128;4.566;2023-06-10T07:57:21;11.07;;;7.68;;
10387;SDS011;5240;51.128;4.566;2023-06-10T07:59:49;12.35;;;7.43;;
10387;SDS011;5240;51.128;4.566;2023-06-10T08:02:17;8.52;;;7.40;;
10387;SDS011;5240;51.128;4.566;2023-06-10T08:04:44;9.88;;;7.10;;
10387;SDS011;5240;51.128;4.566;2023-06-10T08:07:11;17.83;;;8.15;;
10387;SDS011;5240;51.128;4.566;2023-06-10T08:09:38;9.95;;;7.10;;
10387;SDS011;5240;51.128;4.566;2023-06-10T08:12:06;8.60;;;7.05;;
10387;SDS011;5240;51.128;4.566;2023-06-10T08:14:34;10.52;;;7.70;;
10387;SDS011;5240;51.128;4.566;2023-06-10T08:17:03;8.98;;;7.63;;
10387;SDS011;5240;51.128;4.566;2023-06-10T08:19:31;7.72;;;7.00;;
10387;SDS011;5240;51.128;4.566;2023-06-10T08:21:58;11.45;;;7.63;;
10387;SDS011;5240;51.128;4.566;2023-06-10T08:24:27;7.57;;;6.88;;
10387;SDS011;5240;51.128;4.566;2023-06-10T08:26:54;9.45;;;7.40;;
10387;SDS011;5240;51.128;4.566;2023-06-10T08:29:22;9.98;;;7.25;;
10387;SDS011;5240;51.128;4.566;2023-06-10T08:31:50;8.60;;;7.20;;
10387;SDS011;5240;51.128;4.566;2023-06-10T08:34:18;8.27;;;7.53;;
10387;SDS011;5240;51.128;4.566;2023-06-10T08:36:46;10.02;;;6.85;;
10387;SDS011;5240;51.128;4.566;2023-06-10T08:39:18;10.30;;;7.28;;
10387;SDS011;5240;51.128;4.566;2023-06-10T08:41:48;7.78;;;6.90;;
10387;SDS011;5240;51.128;4.566;2023-06-10T08:44:21;9.80;;;6.95;;
10387;SDS011;5240;51.128;4.566;2023-06-10T08:46:49;9.07;;;6.65;;
10387;SDS011;5240;51.128;4.566;2023-06-10T08:49:18;7.45;;;6.70;;
10387;SDS011;5240;51.128;4.566;2023-06-10T08:51:47;10.02;;;7.15;;
10387;SDS011;5240;51.128;4.566;2023-06-10T08:54:17;8.18;;;6.90;;
10387;SDS011;5240;51.128;4.566;2023-06-10T08:56:45;8.48;;;7.55;;
10387;SDS011;5240;51.128;4.566;2023-06-10T08:59:15;8.27;;;7.38;;
10387;SDS011;5240;51.128;4.566;2023-06-10T09:01:42;8.80;;;7.00;;
10387;SDS011;5240;51.128;4.566;2023-06-10T09:04:10;7.65;;;6.85;;
10387;SDS011;5240;51.128;4.566;2023-06-10T09:06:40;10.45;;;7.03;;
10387;SDS011;5240;51.128;4.566;2023-06-10T09:09:07;8.30;;;6.80;;
10387;SDS011;5240;51.128;4.566;2023-06-10T09:11:34;8.90;;;6.85;;
10387;SDS011;5240;51.128;4.566;2023-06-10T09:14:01;9.52;;;7.05;;
10387;SDS011;5240;51.128;4.566;2023-06-10T09:16:29;7.28;;;6.57;;
10387;SDS011;5240;51.128;4.566;2023-06-10T09:18:56;8.65;;;6.75;;
10387;SDS011;5240;51.128;4.566;2023-06-10T09:21:24;9.57;;;7.15;;
10387;SDS011;5240;51.128;4.566;2023-06-10T09:23:53;11.93;;;7.25;;
10387;SDS011;5240;51.128;4.566;2023-06-10T09:26:20;7.97;;;6.95;;
10387;SDS011;5240;51.128;4.566;2023-06-10T09:28:57;8.05;;;6.35;;
10387;SDS011;5240;51.128;4.566;2023-06-10T09:31:24;7.93;;;6.63;;
10387;SDS011;5240;51.128;4.566;2023-06-10T09:33:51;10.68;;;7.55;;
10387;SDS011;5240;51.128;4.566;2023-06-10T09:36:22;10.88;;;7.60;;
10387;SDS011;5240;51.128;4.566;2023-06-10T09:38:49;8.00;;;6.72;;
10387;SDS011;5240;51.128;4.566;2023-06-10T09:41:18;9.00;;;6.70;;
10387;SDS011;5240;51.128;4.566;2023-06-10T09:43:46;8.27;;;7.28;;
10387;SDS011;5240;51.128;4.566;2023-06-10T09:46:14;8.50;;;7.70;;
10387;SDS011;5240;51.128;4.566;2023-06-10T09:48:43;7.72;;;7.03;;
10387;SDS011;5240;51.128;4.566;2023-06-10T09:51:10;7.78;;;6.47;;
10387;SDS011;5240;51.128;4.566;2023-06-10T09:53:37;7.90;;;6.90;;
10387;SDS011;5240;51.128;4.566;2023-06-10T09:56:05;8.95;;;6.53;;
10387;SDS011;5240;51.128;4.566;2023-06-10T09:58:37;8.90;;;6.75;;
10387;SDS011;5240;51.128;4.566;2023-06-10T10:01:05;8.77;;;6.75;;
10387;SDS011;5240;51.128;4.566;2023-06-10T10:03:32;10.15;;;6.95;;
10387;SDS011;5240;51.128;4.566;2023-06-10T10:06:00;8.63;;;6.78;;
10387;SDS011;5240;51.128;4.566;2023-06-10T10:08:27;7.80;;;6.88;;
10387;SDS011;5240;51.128;4.566;2023-06-10T10:10:56;7.75;;;6.45;;
10387;SDS011;5240;51.128;4.566;2023-06-10T10:13:24;7.40;;;6.70;;
10387;SDS011;5240;51.128;4.566;2023-06-10T10:15:54;9.10;;;6.70;;
10387;SDS011;5240;51.128;4.566;2023-06-10T10:18:23;9.65;;;6.78;;
10387;SDS011;5240;51.128;4.566;2023-06-10T10:20:54;7.57;;;6.10;;
10387;SDS011;5240;51.128;4.566;2023-06-10T10:23:23;9.05;;;6.45;;
10387;SDS011;5240;51.128;4.566;2023-06-10T10:25:52;7.63;;;6.85;;
10387;SDS011;5240;51.128;4.566;2023-06-10T10:28:21;7.22;;;6.45;;
10387;SDS011;5240;51.128;4.566;2023-06-10T10:30:52;9.55;;;6.15;;
10387;SDS011;5240;51.128;4.566;2023-06-10T10:33:22;6.97;;;6.13;;
10387;SDS011;5240;51.128;4.566;2023-06-10T10:35:55;9.02;;;6.60;;
10387;SDS011;5240;51.128;4.566;2023-06-10T10:38:22;8.10;;;7.10;;
10387;SDS011;5240;51.128;4.566;2023-06-10T10:40:49;6.70;;;6.10;;
10387;SDS011;5240;51.128;4.566;2023-06-10T10:43:17;7.18;;;6.50;;
10387;SDS011;5240;51.128;4.566;2023-06-10T10:45:45;8.32;;;6.78;;
10387;SDS011;5240;51.128;4.566;2023-06-10T10:48:12;13.20;;;6.80;;
10387;SDS011;5240;51.128;4.566;2023-06-10T10:50:41;7.25;;;6.53;;
10387;SDS011;5240;51.128;4.566;2023-06-10T10:53:09;6.60;;;6.00;;
10387;SDS011;5240;51.128;4.566;2023-06-10T10:55:36;8.77;;;6.25;;
10387;SDS011;5240;51.128;4.566;2023-06-10T10:58:05;6.55;;;5.95;;
10387;SDS011;5240;51.128;4.566;2023-06-10T11:00:33;12.15;;;6.43;;
10387;SDS011;5240;51.128;4.566;2023-06-10T11:03:05;6.80;;;6.20;;
10387;SDS011;5240;51.128;4.566;2023-06-10T11:05:37;9.50;;;6.00;;
10387;SDS011;5240;51.128;4.566;2023-06-10T11:08:06;10.38;;;5.85;;
10387;SDS011;5240;51.128;4.566;2023-06-10T11:10:33;8.95;;;6.53;;
10387;SDS011;5240;51.128;4.566;2023-06-10T11:13:05;8.75;;;6.55;;
10387;SDS011;5240;51.128;4.566;2023-06-10T11:15:32;10.13;;;6.53;;
10387;SDS011;5240;51.128;4.566;2023-06-10T11:18:06;7.50;;;6.05;;
10387;SDS011;5240;51.128;4.566;2023-06-10T11:29:07;9.57;;;6.00;;
10387;SDS011;5240;51.128;4.566;2023-06-10T11:31:38;11.68;;;6.03;;
10387;SDS011;5240;51.128;4.566;2023-06-10T11:34:06;6.80;;;6.15;;
10387;SDS011;5240;51.128;4.566;2023-06-10T11:36:34;8.77;;;6.10;;
10387;SDS011;5240;51.128;4.566;2023-06-10T11:39:03;6.70;;;6.07;;
10387;SDS011;5240;51.128;4.566;2023-06-10T11:41:31;8.10;;;6.32;;
10387;SDS011;5240;51.128;4.566;2023-06-10T11:44:01;7.28;;;6.60;;
10387;SDS011;5240;51.128;4.566;2023-06-10T11:46:30;9.20;;;6.53;;
10387;SDS011;5240;51.128;4.566;2023-06-10T11:48:58;9.65;;;7.22;;
10387;SDS011;5240;51.128;4.566;2023-06-10T11:51:26;9.93;;;7.63;;
10387;SDS011;5240;51.128;4.566;2023-06-10T11:53:54;9.25;;;8.35;;
10387;SDS011;5240;51.128;4.566;2023-06-10T11:56:21;11.40;;;6.28;;
10387;SDS011;5240;51.128;4.566;2023-06-10T11:58:52;10.00;;;6.72;;
10387;SDS011;5240;51.128;4.566;2023-06-10T12:01:20;7.00;;;6.40;;
10387;SDS011;5240;51.128;4.566;2023-06-10T12:03:50;9.63;;;6.72;;
10387;SDS011;5240;51.128;4.566;2023-06-10T12:06:23;8.43;;;5.90;;
10387;SDS011;5240;51.128;4.566;2023-06-10T12:08:50;8.48;;;6.13;;
10387;SDS011;5240;51.128;4.566;2023-06-10T12:11:17;9.18;;;6.57;;
10387;SDS011;5240;51.128;4.566;2023-06-10T12:13:46;11.93;;;6.75;;
10387;SDS011;5240;51.128;4.566;2023-06-10T12:16:14;10.02;;;6.78;;
10387;SDS011;5240;51.128;4.566;2023-06-10T12:18:43;6.90;;;6.20;;
10387;SDS011;5240;51.128;4.566;2023-06-10T12:21:19;10.68;;;5.97;;
10387;SDS011;5240;51.128;4.566;2023-06-10T12:24:02;9.43;;;6.15;;
10387;SDS011;5240;51.128;4.566;2023-06-10T12:26:34;7.15;;;6.45;;
10387;SDS011;5240;51.128;4.566;2023-06-10T12:29:02;8.52;;;6.80;;
10387;SDS011;5240;51.128;4.566;2023-06-10T12:31:30;10.77;;;6.30;;
10387;SDS011;5240;51.128;4.566;2023-06-10T12:34:07;6.57;;;5.88;;
10387;SDS011;5240;51.128;4.566;2023-06-10T12:36:35;9.32;;;6.70;;
10387;SDS011;5240;51.128;4.566;2023-06-10T12:39:03;7.38;;;6.25;;
10387;SDS011;5240;51.128;4.566;2023-06-10T12:41:30;7.22;;;5.72;;
10387;SDS011;5240;51.128;4.566;2023-06-10T12:43:59;6.40;;;5.60;;
10387;SDS011;5240;51.128;4.566;2023-06-10T12:46:35;10.10;;;6.15;;
10387;SDS011;5240;51.128;4.566;2023-06-10T12:49:02;7.53;;;6.68;;
10387;SDS011;5240;51.128;4.566;2023-06-10T12:51:29;8.52;;;6.40;;
10387;SDS011;5240;51.128;4.566;2023-06-10T12:53:58;8.30;;;6.50;;
10387;SDS011;5240;51.128;4.566;2023-06-10T12:56:25;7.30;;;6.25;;
10387;SDS011;5240;51.128;4.566;2023-06-10T12:58:52;10.02;;;6.80;;
10387;SDS011;5240;51.128;4.566;2023-06-10T13:01:20;10.30;;;6.50;;
10387;SDS011;5240;51.128;4.566;2023-06-10T13:03:47;8.05;;;6.63;;
10387;SDS011;5240;51.128;4.566;2023-06-10T13:06:14;8.32;;;6.57;;
10387;SDS011;5240;51.128;4.566;2023-06-10T13:08:41;7.28;;;6.68;;
10387;SDS011;5240;51.128;4.566;2023-06-10T13:11:10;8.23;;;6.00;;
10387;SDS011;5240;51.128;4.566;2023-06-10T13:13:37;7.15;;;6.45;;
10387;SDS011;5240;51.128;4.566;2023-06-10T13:16:05;6.90;;;6.28;;
10387;SDS011;5240;51.128;4.566;2023-06-10T13:18:32;7.85;;;7.05;;
10387;SDS011;5240;51.128;4.566;2023-06-10T13:21:02;7.22;;;6.05;;
10387;SDS011;5240;51.128;4.566;2023-06-10T13:23:29;7.68;;;6.07;;
10387;SDS011;5240;51.128;4.566;2023-06-10T13:25:57;7.55;;;6.70;;
10387;SDS011;5240;51.128;4.566;2023-06-10T13:28:26;6.85;;;6.35;;
10387;SDS011;5240;51.128;4.566;2023-06-10T13:30:56;7.32;;;6.63;;
10387;SDS011;5240;51.128;4.566;2023-06-10T13:33:23;11.85;;;6.60;;
10387;SDS011;5240;51.128;4.566;2023-06-10T13:35:50;9.73;;;6.53;;
10387;SDS011;5240;51.128;4.566;2023-06-10T13:38:18;9.20;;;5.80;;
10387;SDS011;5240;51.128;4.566;2023-06-10T13:40:45;8.43;;;6.03;;
10387;SDS011;5240;51.128;4.566;2023-06-10T13:43:12;9.27;;;6.85;;
10387;SDS011;5240;51.128;4.566;2023-06-10T13:45:42;6.43;;;5.82;;
10387;SDS011;5240;51.128;4.566;2023-06-10T13:48:10;7.60;;;6.30;;
10387;SDS011;5240;51.128;4.566;2023-06-10T13:50:37;7.80;;;6.22;;
10387;SDS011;5240;51.128;4.566;2023-06-10T13:53:05;8.85;;;6.03;;
10387;SDS011;5240;51.128;4.566;2023-06-10T13:55:32;10.02;;;6.22;;
10387;SDS011;5240;51.128;4.566;2023-06-10T13:57:59;8.25;;;6.22;;
10387;SDS011;5240;51.128;4.566;2023-06-10T14:00:26;7.90;;;6.00;;
10387;SDS011;5240;51.128;4.566;2023-06-10T14:02:56;7.30;;;6.38;;
10387;SDS011;5240;51.128;4.566;2023-06-10T14:05:23;7.95;;;6.68;;
10387;SDS011;5240;51.128;4.566;2023-06-10T14:07:50;8.10;;;6.80;;
10387;SDS011;5240;51.128;4.566;2023-06-10T14:10:18;9.00;;;6.10;;
10387;SDS011;5240;51.128;4.566;2023-06-10T14:12:45;7.50;;;6.78;;
10387;SDS011;5240;51.128;4.566;2023-06-10T14:15:12;7.45;;;6.05;;
10387;SDS011;5240;51.128;4.566;2023-06-10T14:17:40;6.65;;;6.10;;
10387;SDS011;5240;51.128;4.566;2023-06-10T14:20:09;9.40;;;6.13;;
10387;SDS011;5240;51.128;4.566;2023-06-10T14:22:36;8.13;;;6.28;;
10387;SDS011;5240;51.128;4.566;2023-06-10T14:25:04;6.60;;;5.93;;
10387;SDS011;5240;51.128;4.566;2023-06-10T14:27:31;6.50;;;6.00;;
10387;SDS011;5240;51.128;4.566;2023-06-10T14:29:59;8.40;;;6.65;;
10387;SDS011;5240;51.128;4.566;2023-06-10T14:32:26;11.50;;;6.05;;
10387;SDS011;5240;51.128;4.566;2023-06-10T14:34:53;7.60;;;6.00;;
10387;SDS011;5240;51.128;4.566;2023-06-10T14:37:22;6.63;;;5.70;;
10387;SDS011;5240;51.128;4.566;2023-06-10T14:39:49;8.35;;;7.50;;
10387;SDS011;5240;51.128;4.566;2023-06-10T14:42:16;7.00;;;6.18;;
10387;SDS011;5240;51.128;4.566;2023-06-10T14:44:43;9.85;;;6.18;;
10387;SDS011;5240;51.128;4.566;2023-06-10T14:47:11;7.93;;;6.00;;
10387;SDS011;5240;51.128;4.566;2023-06-10T14:49:38;6.50;;;6.00;;
10387;SDS011;5240;51.128;4.566;2023-06-10T14:52:07;7.22;;;6.45;;
10387;SDS011;5240;51.128;4.566;2023-06-10T14:54:36;8.43;;;6.55;;
10387;SDS011;5240;51.128;4.566;2023-06-10T14:57:03;8.38;;;6.47;;
10387;SDS011;5240;51.128;4.566;2023-06-10T14:59:31;6.70;;;5.93;;
10387;SDS011;5240;51.128;4.566;2023-06-10T15:01:58;6.10;;;5.60;;
10387;SDS011;5240;51.128;4.566;2023-06-10T15:04:26;6.57;;;5.68;;
10387;SDS011;5240;51.128;4.566;2023-06-10T15:06:53;12.27;;;6.10;;
10387;SDS011;5240;51.128;4.566;2023-06-10T15:09:21;7.97;;;6.63;;